Time;durP1;ratioP1;P1;durP2;ratioP2;P2;SDS_P1;SDS_P2;PMS_P1;PMS_P2;Temp;Humidity;BMP_temperature;BMP_pressure;BME280_temperature;BME280_humidity;BME280_pressure;Samples;Min_cycle;Max_cycle;Signal;HPM_P1;HPM_P2
2023/06/18 00:01:51;;;;;;;12.30;11.70;;;;;;;;;;4986235;28;20390;-66
2023/06/18 00:04:16;;;;;;;12.75;12.15;;;;;;;;;;4990316;28;20064;-65
2023/06/18 00:06:42;;;;;;;12.10;11.50;;;;;;;;;;4990919;28;20023;-66
2023/06/18 00:09:07;;;;;;;12.60;12.00;;;;;;;;;;4985885;28;20184;-66
2023/06/18 00:11:33;;;;;;;12.45;11.85;;;;;;;;;;4989983;28;20045;-65
2023/06/18 00:13:58;;;;;;;12.05;11.50;;;;;;;;;;4993469;28;20041;-66
2023/06/18 00:16:23;;;;;;;12.50;11.90;;;;;;;;;;4993519;28;20029;-66
2023/06/18 00:18:49;;;;;;;12.27;11.68;;;;;;;;;;4990580;28;20469;-66
2023/06/18 00:21:14;;;;;;;12.30;11.70;;;;;;;;;;4978738;28;20038;-67
2023/06/18 00:23:39;;;;;;;12.57;11.98;;;;;;;;;;4988071;28;20022;-66
2023/06/18 00:26:04;;;;;;;12.40;11.80;;;;;;;;;;4992709;28;20493;-66
2023/06/18 00:28:31;;;;;;;13.15;12.45;;;;;;;;;;4989710;28;20054;-67
2023/06/18 00:30:56;;;;;;;12.10;11.50;;;;;;;;;;4993018;28;20406;-66
2023/06/18 00:33:22;;;;;;;12.52;11.93;;;;;;;;;;4990892;28;20081;-66
2023/06/18 00:35:48;;;;;;;12.30;11.70;;;;;;;;;;4993218;28;20034;-65
2023/06/18 00:38:16;;;;;;;12.40;11.80;;;;;;;;;;4992187;28;20367;-65
2023/06/18 00:40:42;;;;;;;12.38;11.77;;;;;;;;;;4987028;28;20027;-66
2023/06/18 00:43:08;;;;;;;12.57;11.98;;;;;;;;;;4989272;28;20504;-66
2023/06/18 00:45:34;;;;;;;12.38;11.77;;;;;;;;;;4987137;28;20030;-65
2023/06/18 00:48:00;;;;;;;12.27;11.68;;;;;;;;;;4990785;28;20113;-66
2023/06/18 00:50:26;;;;;;;12.20;11.60;;;;;;;;;;4995058;28;20101;-66
2023/06/18 00:52:59;;;;;;;12.38;11.77;;;;;;;;;;4986794;28;20363;-66
2023/06/18 00:55:26;;;;;;;12.60;12.00;;;;;;;;;;4982365;28;20033;-65
2023/06/18 00:57:59;;;;;;;12.20;11.60;;;;;;;;;;4991902;28;20611;-66
2023/06/18 01:00:25;;;;;;;12.40;11.80;;;;;;;;;;4991080;28;20493;-66
2023/06/18 01:02:53;;;;;;;12.73;12.13;;;;;;;;;;4981478;28;20069;-65
2023/06/18 01:05:19;;;;;;;12.75;12.15;;;;;;;;;;4989233;28;20083;-65
2023/06/18 01:07:47;;;;;;;12.02;11.43;;;;;;;;;;4992207;28;20097;-66
2023/06/18 01:10:14;;;;;;;12.30;11.70;;;;;;;;;;4990328;28;20084;-65
2023/06/18 01:12:39;;;;;;;12.55;11.95;;;;;;;;;;4992367;28;20386;-64
2023/06/18 01:15:09;;;;;;;11.77;11.27;;;;;;;;;;4988346;28;20058;-65
2023/06/18 01:17:35;;;;;;;12.05;11.45;;;;;;;;;;4992125;28;20029;-66
2023/06/18 01:20:11;;;;;;;11.80;11.30;;;;;;;;;;4979853;28;20027;-65
2023/06/18 01:22:57;;;;;;;12.65;12.05;;;;;;;;;;4986870;28;20023;-65
2023/06/18 01:25:25;;;;;;;13.43;12.73;;;;;;;;;;4986044;28;20026;-65
2023/06/18 01:27:53;;;;;;;12.50;11.90;;;;;;;;;;4986332;28;20038;-64
2023/06/18 01:30:19;;;;;;;12.52;11.93;;;;;;;;;;4991655;28;20058;-66
2023/06/18 01:32:44;;;;;;;12.27;11.68;;;;;;;;;;4992784;28;20050;-65
2023/06/18 01:35:16;;;;;;;13.57;12.88;;;;;;;;;;4988621;28;20058;-65
2023/06/18 01:38:00;;;;;;;12.70;12.10;;;;;;;;;;4985792;28;20034;-65
2023/06/18 01:40:35;;;;;;;12.18;11.57;;;;;;;;;;4989763;28;20030;-66
2023/06/18 01:43:05;;;;;;;12.27;11.68;;;;;;;;;;4991710;28;20032;-66
2023/06/18 01:45:33;;;;;;;12.40;11.80;;;;;;;;;;4988204;28;20137;-65
2023/06/18 01:48:03;;;;;;;12.75;12.15;;;;;;;;;;4982015;28;20030;-66
2023/06/18 01:50:30;;;;;;;12.30;11.70;;;;;;;;;;4988516;28;20051;-66
2023/06/18 01:52:56;;;;;;;12.30;11.70;;;;;;;;;;4990623;28;20121;-66
2023/06/18 01:55:22;;;;;;;12.52;11.93;;;;;;;;;;4988982;28;20561;-66
2023/06/18 01:57:47;;;;;;;12.40;11.80;;;;;;;;;;4986660;28;20030;-66
2023/06/18 02:00:13;;;;;;;13.27;12.57;;;;;;;;;;4991046;28;20030;-66
2023/06/18 02:02:38;;;;;;;12.50;11.90;;;;;;;;;;4986956;28;20076;-66
2023/06/18 02:05:04;;;;;;;12.95;12.32;;;;;;;;;;4989925;28;20029;-66
2023/06/18 02:07:29;;;;;;;11.80;11.30;;;;;;;;;;4986376;28;20034;-67
2023/06/18 02:09:55;;;;;;;13.43;12.73;;;;;;;;;;4987304;28;20045;-65
2023/06/18 02:12:20;;;;;;;12.38;11.77;;;;;;;;;;4989082;28;20034;-66
2023/06/18 02:14:46;;;;;;;12.50;11.90;;;;;;;;;;4987204;28;20037;-66
2023/06/18 02:17:11;;;;;;;12.32;11.73;;;;;;;;;;4985273;28;20057;-66
2023/06/18 02:19:37;;;;;;;12.73;12.13;;;;;;;;;;4987264;28;20424;-65
2023/06/18 02:22:02;;;;;;;12.43;11.82;;;;;;;;;;4986533;28;20629;-65
2023/06/18 02:24:27;;;;;;;12.50;11.90;;;;;;;;;;4991093;28;20053;-65
2023/06/18 02:26:53;;;;;;;13.13;12.45;;;;;;;;;;4992749;28;20030;-65
2023/06/18 02:29:18;;;;;;;12.20;11.60;;;;;;;;;;4987620;28;20037;-65
2023/06/18 02:31:43;;;;;;;12.05;11.45;;;;;;;;;;4988692;28;20398;-65
2023/06/18 02:34:09;;;;;;;12.73;12.13;;;;;;;;;;4991039;28;20038;-65
2023/06/18 02:36:34;;;;;;;12.10;11.50;;;;;;;;;;4986104;28;20034;-65
2023/06/18 02:38:59;;;;;;;11.95;11.43;;;;;;;;;;4970466;28;20441;-66
2023/06/18 02:41:26;;;;;;;11.73;11.23;;;;;;;;;;4989551;28;20538;-65
2023/06/18 02:43:52;;;;;;;12.20;11.60;;;;;;;;;;4990452;28;20105;-65
2023/06/18 02:46:18;;;;;;;12.40;11.80;;;;;;;;;;4989661;28;20105;-65
2023/06/18 02:48:43;;;;;;;12.63;12.02;;;;;;;;;;4993997;28;20033;-65
2023/06/18 02:51:10;;;;;;;13.10;12.40;;;;;;;;;;4993076;28;20511;-65
2023/06/18 02:53:35;;;;;;;12.02;11.48;;;;;;;;;;4989665;28;20022;-65
2023/06/18 02:56:01;;;;;;;12.70;12.10;;;;;;;;;;4985241;28;20537;-66
2023/06/18 02:58:29;;;;;;;12.00;11.40;;;;;;;;;;4994882;28;20015;-66
2023/06/18 03:01:02;;;;;;;12.23;11.63;;;;;;;;;;4989123;28;20030;-66
2023/06/18 03:03:27;;;;;;;12.02;11.43;;;;;;;;;;4994728;28;20022;-65
2023/06/18 03:05:53;;;;;;;13.95;13.23;;;;;;;;;;4987608;28;20588;-65
2023/06/18 03:08:19;;;;;;;13.13;12.45;;;;;;;;;;4990521;28;20061;-65
2023/06/18 03:10:45;;;;;;;11.90;11.40;;;;;;;;;;4992784;28;20030;-65
2023/06/18 03:13:10;;;;;;;12.88;12.27;;;;;;;;;;4988541;28;20075;-65
2023/06/18 03:15:35;;;;;;;12.15;11.55;;;;;;;;;;4994439;28;20390;-65
2023/06/18 03:18:01;;;;;;;12.43;11.82;;;;;;;;;;4993673;28;20482;-66
2023/06/18 03:20:27;;;;;;;12.02;11.43;;;;;;;;;;4993355;28;20482;-65
2023/06/18 03:22:52;;;;;;;13.25;12.57;;;;;;;;;;4998281;28;20023;-65
2023/06/18 03:25:19;;;;;;;12.10;11.50;;;;;;;;;;4993004;28;20018;-66
2023/06/18 03:27:45;;;;;;;12.40;11.80;;;;;;;;;;4989048;28;20092;-66
2023/06/18 03:30:11;;;;;;;13.43;12.73;;;;;;;;;;4985828;28;20113;-66
2023/06/18 03:32:36;;;;;;;11.95;11.38;;;;;;;;;;4988700;28;20106;-66
2023/06/18 03:35:04;;;;;;;12.80;12.20;;;;;;;;;;4986594;28;20046;-66
2023/06/18 03:37:30;;;;;;;12.52;11.93;;;;;;;;;;4992390;28;20393;-65
2023/06/18 03:39:55;;;;;;;12.35;11.75;;;;;;;;;;4984145;28;20110;-65
2023/06/18 03:42:21;;;;;;;12.23;11.63;;;;;;;;;;4991153;28;20090;-65
2023/06/18 03:44:46;;;;;;;12.70;12.10;;;;;;;;;;4991552;28;20015;-65
2023/06/18 03:47:13;;;;;;;12.67;12.07;;;;;;;;;;4991685;28;20482;-65
2023/06/18 03:49:38;;;;;;;12.55;11.95;;;;;;;;;;4989651;28;20268;-66
2023/06/18 03:52:03;;;;;;;13.38;12.68;;;;;;;;;;4990710;28;20492;-64
2023/06/18 03:54:29;;;;;;;12.00;11.40;;;;;;;;;;4996330;28;20021;-65
2023/06/18 03:56:54;;;;;;;13.07;12.38;;;;;;;;;;4989449;28;20113;-65
2023/06/18 03:59:20;;;;;;;12.27;11.68;;;;;;;;;;4986679;28;20056;-65
2023/06/18 04:01:45;;;;;;;12.52;11.93;;;;;;;;;;4987136;28;20073;-65
2023/06/18 04:04:10;;;;;;;12.13;11.52;;;;;;;;;;4990597;28;20030;-65
2023/06/18 04:06:36;;;;;;;11.50;11.00;;;;;;;;;;4990769;28;20061;-65
2023/06/18 04:09:01;;;;;;;12.90;12.30;;;;;;;;;;5000398;28;20137;-66
2023/06/18 04:11:27;;;;;;;11.93;11.38;;;;;;;;;;4986078;28;20029;-65
2023/06/18 04:13:52;;;;;;;12.90;12.30;;;;;;;;;;4989695;28;20117;-65
2023/06/18 04:16:17;;;;;;;12.70;12.10;;;;;;;;;;4988327;28;20022;-66
2023/06/18 04:18:43;;;;;;;12.63;12.02;;;;;;;;;;4992106;28;20050;-66
2023/06/18 04:21:08;;;;;;;12.25;11.65;;;;;;;;;;4992299;28;20026;-65
2023/06/18 04:23:33;;;;;;;12.00;11.43;;;;;;;;;;4990144;28;20113;-65
2023/06/18 04:25:58;;;;;;;12.25;11.65;;;;;;;;;;4988941;28;20046;-66
2023/06/18 04:28:24;;;;;;;12.20;11.60;;;;;;;;;;4983815;28;20061;-66
2023/06/18 04:30:49;;;;;;;13.27;12.57;;;;;;;;;;4983752;28;20030;-66
2023/06/18 04:33:15;;;;;;;12.35;11.75;;;;;;;;;;4982046;28;20026;-66
2023/06/18 04:35:40;;;;;;;12.40;11.80;;;;;;;;;;4988012;28;20053;-65
2023/06/18 04:38:06;;;;;;;11.75;11.25;;;;;;;;;;4992659;28;20478;-66
2023/06/18 04:40:31;;;;;;;12.27;11.68;;;;;;;;;;4990954;28;20117;-65
2023/06/18 04:42:57;;;;;;;12.55;11.95;;;;;;;;;;4991259;28;20181;-66
2023/06/18 04:45:22;;;;;;;12.52;11.93;;;;;;;;;;4985233;28;20533;-65
2023/06/18 04:47:47;;;;;;;12.95;12.35;;;;;;;;;;4994126;28;20029;-65
2023/06/18 04:50:13;;;;;;;12.57;11.98;;;;;;;;;;4991636;28;20018;-66
2023/06/18 04:52:38;;;;;;;12.10;11.50;;;;;;;;;;4988655;28;20050;-65
2023/06/18 04:55:05;;;;;;;12.57;11.98;;;;;;;;;;4985826;28;20030;-66
2023/06/18 04:57:30;;;;;;;12.38;11.77;;;;;;;;;;4984754;28;20172;-66
2023/06/18 04:59:55;;;;;;;12.65;12.05;;;;;;;;;;4988764;28;20046;-62
2023/06/18 05:02:20;;;;;;;12.85;12.25;;;;;;;;;;4987068;28;20033;-63
2023/06/18 05:04:46;;;;;;;12.25;11.65;;;;;;;;;;4991622;28;20130;-62
2023/06/18 05:07:11;;;;;;;12.73;12.13;;;;;;;;;;4986065;28;20022;-62
2023/06/18 05:09:36;;;;;;;11.98;11.43;;;;;;;;;;4991359;28;20030;-62
2023/06/18 05:12:02;;;;;;;14.02;13.30;;;;;;;;;;4984585;28;20097;-62
2023/06/18 05:14:27;;;;;;;12.32;11.73;;;;;;;;;;4983256;28;20065;-63
2023/06/18 05:16:53;;;;;;;13.32;12.63;;;;;;;;;;4985476;28;20030;-63
2023/06/18 05:19:19;;;;;;;12.30;11.70;;;;;;;;;;4987217;28;20060;-63
2023/06/18 05:21:44;;;;;;;13.02;12.40;;;;;;;;;;4986049;28;20019;-63
2023/06/18 05:24:10;;;;;;;13.25;12.57;;;;;;;;;;4984369;28;20018;-62
2023/06/18 05:26:35;;;;;;;12.15;11.55;;;;;;;;;;4978797;28;20046;-62
2023/06/18 05:29:00;;;;;;;12.68;12.07;;;;;;;;;;4981816;28;20051;-61
2023/06/18 05:31:27;;;;;;;12.57;11.98;;;;;;;;;;4983533;28;20033;-61
2023/06/18 05:33:53;;;;;;;13.00;12.40;;;;;;;;;;4980979;28;20030;-63
2023/06/18 05:36:22;;;;;;;12.70;12.10;;;;;;;;;;4984635;28;20046;-62
2023/06/18 05:38:47;;;;;;;12.73;12.13;;;;;;;;;;4989090;28;20034;-62
2023/06/18 05:41:13;;;;;;;12.55;11.95;;;;;;;;;;4980552;28;20026;-61
2023/06/18 05:43:38;;;;;;;12.48;11.88;;;;;;;;;;4986990;28;20034;-62
2023/06/18 05:46:03;;;;;;;12.75;12.15;;;;;;;;;;4983155;28;20092;-62
2023/06/18 05:48:29;;;;;;;11.75;11.25;;;;;;;;;;4978268;28;20050;-62
2023/06/18 05:50:54;;;;;;;12.00;11.40;;;;;;;;;;4982753;28;20085;-61
2023/06/18 05:53:19;;;;;;;12.30;11.70;;;;;;;;;;4985046;28;20120;-62
2023/06/18 05:55:45;;;;;;;13.48;12.77;;;;;;;;;;4980099;28;20034;-61
2023/06/18 05:58:10;;;;;;;12.68;12.07;;;;;;;;;;4985298;28;20430;-61
2023/06/18 06:00:35;;;;;;;12.88;12.27;;;;;;;;;;4976539;28;20050;-62
2023/06/18 06:03:01;;;;;;;12.55;11.95;;;;;;;;;;4982328;28;20055;-61
2023/06/18 06:05:26;;;;;;;13.30;12.60;;;;;;;;;;4981161;28;20014;-63
2023/06/18 06:07:51;;;;;;;12.77;12.18;;;;;;;;;;4983611;28;20026;-63
2023/06/18 06:10:18;;;;;;;13.07;12.45;;;;;;;;;;4984174;28;20023;-62
2023/06/18 06:12:44;;;;;;;12.25;11.65;;;;;;;;;;4988490;28;20023;-62
2023/06/18 06:15:09;;;;;;;12.68;12.07;;;;;;;;;;4980484;28;20509;-64
2023/06/18 06:17:35;;;;;;;12.00;11.50;;;;;;;;;;4990447;28;20026;-63
2023/06/18 06:20:00;;;;;;;12.85;12.25;;;;;;;;;;4985342;28;20126;-62
2023/06/18 06:22:26;;;;;;;12.55;11.95;;;;;;;;;;4981559;28;20025;-62
2023/06/18 06:24:51;;;;;;;12.63;12.02;;;;;;;;;;4988987;28;20204;-62
2023/06/18 06:27:17;;;;;;;12.95;12.35;;;;;;;;;;4991753;28;20480;-67
2023/06/18 06:29:42;;;;;;;14.48;13.70;;;;;;;;;;4980936;28;20042;-65
2023/06/18 06:32:07;;;;;;;13.32;12.68;;;;;;;;;;4989569;28;20022;-68
2023/06/18 06:34:33;;;;;;;13.25;12.60;;;;;;;;;;4992279;28;20033;-68
2023/06/18 06:36:58;;;;;;;12.65;12.05;;;;;;;;;;4985741;28;20064;-68
2023/06/18 06:39:23;;;;;;;13.48;12.77;;;;;;;;;;4989095;28;20049;-68
2023/06/18 06:41:49;;;;;;;13.63;12.93;;;;;;;;;;4986887;28;20026;-68
2023/06/18 06:44:15;;;;;;;12.80;12.20;;;;;;;;;;4997598;28;20081;-68
2023/06/18 06:46:40;;;;;;;12.10;11.55;;;;;;;;;;4989892;28;20034;-68
2023/06/18 06:49:07;;;;;;;12.30;11.70;;;;;;;;;;4986789;28;20437;-68
2023/06/18 06:51:33;;;;;;;12.10;11.60;;;;;;;;;;4979039;28;20028;-68
2023/06/18 06:53:59;;;;;;;12.63;12.02;;;;;;;;;;4991183;28;20166;-68
2023/06/18 06:56:24;;;;;;;12.40;11.80;;;;;;;;;;4987182;28;20469;-69
2023/06/18 06:58:50;;;;;;;13.05;12.45;;;;;;;;;;4990883;28;20374;-69
2023/06/18 07:01:16;;;;;;;12.48;11.88;;;;;;;;;;4985051;28;20486;-68
2023/06/18 07:03:41;;;;;;;12.90;12.30;;;;;;;;;;4991346;28;20026;-67
2023/06/18 07:06:06;;;;;;;12.07;11.57;;;;;;;;;;4993697;28;20109;-68
2023/06/18 07:08:32;;;;;;;12.40;11.80;;;;;;;;;;4994034;28;20312;-68
2023/06/18 07:10:57;;;;;;;12.10;11.60;;;;;;;;;;4992031;28;20045;-68
2023/06/18 07:13:22;;;;;;;12.50;11.90;;;;;;;;;;4990539;28;20023;-69
2023/06/18 07:15:48;;;;;;;12.80;12.20;;;;;;;;;;4990427;28;20030;-69
2023/06/18 07:18:13;;;;;;;12.50;11.90;;;;;;;;;;4991620;28;20027;-68
2023/06/18 07:20:39;;;;;;;12.77;12.18;;;;;;;;;;4992472;28;20053;-68
2023/06/18 07:23:04;;;;;;;12.68;12.07;;;;;;;;;;4993692;28;20019;-68
2023/06/18 07:25:29;;;;;;;12.60;12.00;;;;;;;;;;4993494;28;20080;-67
2023/06/18 07:27:54;;;;;;;12.40;11.85;;;;;;;;;;4989288;28;20076;-68
2023/06/18 07:30:20;;;;;;;12.20;11.70;;;;;;;;;;4988884;28;20438;-67
2023/06/18 07:32:45;;;;;;;12.97;12.37;;;;;;;;;;4987992;28;20275;-69
2023/06/18 07:35:10;;;;;;;12.30;11.80;;;;;;;;;;4990924;28;20268;-68
2023/06/18 07:37:36;;;;;;;12.45;11.88;;;;;;;;;;4990659;28;20319;-68
2023/06/18 07:40:01;;;;;;;12.43;11.85;;;;;;;;;;4984573;28;20114;-68
2023/06/18 07:42:27;;;;;;;13.05;12.45;;;;;;;;;;4987668;28;20035;-68
2023/06/18 07:44:52;;;;;;;12.60;12.00;;;;;;;;;;4988056;28;20026;-68
2023/06/18 07:47:18;;;;;;;12.90;12.30;;;;;;;;;;4989193;28;20303;-68
2023/06/18 07:49:43;;;;;;;12.63;12.02;;;;;;;;;;4984700;28;20031;-68
2023/06/18 07:52:09;;;;;;;12.73;12.13;;;;;;;;;;4993196;28;20046;-67
2023/06/18 07:54:35;;;;;;;12.18;11.68;;;;;;;;;;4983419;28;20054;-69
2023/06/18 07:57:01;;;;;;;12.70;12.10;;;;;;;;;;4987919;28;20032;-68
2023/06/18 07:59:26;;;;;;;13.75;13.15;;;;;;;;;;4984168;28;20179;-67
2023/06/18 08:01:52;;;;;;;13.70;13.10;;;;;;;;;;4991223;28;20122;-67
2023/06/18 08:04:17;;;;;;;12.13;11.63;;;;;;;;;;4987261;28;20018;-68
2023/06/18 08:06:43;;;;;;;12.57;11.98;;;;;;;;;;4991343;28;20447;-69
2023/06/18 08:09:08;;;;;;;12.18;11.68;;;;;;;;;;4985962;28;20053;-68
2023/06/18 08:11:34;;;;;;;12.32;11.73;;;;;;;;;;4983547;28;20088;-67
2023/06/18 08:13:59;;;;;;;12.57;11.98;;;;;;;;;;4992877;28;20553;-69
2023/06/18 08:16:25;;;;;;;12.00;11.50;;;;;;;;;;4987443;28;20105;-69
2023/06/18 08:18:52;;;;;;;12.50;11.90;;;;;;;;;;4989857;28;20042;-67
2023/06/18 08:21:18;;;;;;;12.10;11.60;;;;;;;;;;4992962;28;20149;-68
2023/06/18 08:23:43;;;;;;;12.60;12.00;;;;;;;;;;4991427;28;20101;-68
2023/06/18 08:26:09;;;;;;;12.55;11.95;;;;;;;;;;4992875;28;20063;-69
2023/06/18 08:28:34;;;;;;;11.90;11.40;;;;;;;;;;4989732;28;20093;-69
2023/06/18 08:30:59;;;;;;;12.90;12.30;;;;;;;;;;4988854;28;20041;-69
2023/06/18 08:33:25;;;;;;;13.20;12.60;;;;;;;;;;4982437;28;20044;-68
2023/06/18 08:35:50;;;;;;;13.98;13.27;;;;;;;;;;4989201;28;20113;-68
2023/06/18 08:38:15;;;;;;;12.77;12.18;;;;;;;;;;4988064;28;20149;-68
2023/06/18 08:40:51;;;;;;;12.30;11.70;;;;;;;;;;4985899;28;20025;-68
2023/06/18 08:43:21;;;;;;;12.35;11.75;;;;;;;;;;4989952;28;20105;-69
2023/06/18 08:45:49;;;;;;;13.48;12.88;;;;;;;;;;4986379;28;20030;-69
2023/06/18 08:48:15;;;;;;;12.65;12.05;;;;;;;;;;4986662;28;20034;-69
2023/06/18 08:50:41;;;;;;;12.75;12.15;;;;;;;;;;4985638;28;20085;-69
2023/06/18 08:53:11;;;;;;;12.90;12.30;;;;;;;;;;4988752;28;20026;-68
2023/06/18 08:55:36;;;;;;;13.30;12.70;;;;;;;;;;4981074;28;20049;-62
2023/06/18 08:58:04;;;;;;;12.48;11.88;;;;;;;;;;4994279;28;20050;-64
2023/06/18 09:00:29;;;;;;;13.52;12.93;;;;;;;;;;4987694;28;20023;-65
2023/06/18 09:02:55;;;;;;;13.10;12.50;;;;;;;;;;4989835;28;20027;-64
2023/06/18 09:05:20;;;;;;;12.23;11.65;;;;;;;;;;4987883;28;21934;-64
2023/06/18 09:07:46;;;;;;;13.50;12.90;;;;;;;;;;4990711;28;20028;-64
2023/06/18 09:10:12;;;;;;;12.20;11.68;;;;;;;;;;4984437;28;20486;-66
2023/06/18 09:12:37;;;;;;;12.02;11.52;;;;;;;;;;4993661;28;20034;-66
2023/06/18 09:15:02;;;;;;;12.15;11.65;;;;;;;;;;4992281;28;20106;-65
2023/06/18 09:17:28;;;;;;;12.77;12.18;;;;;;;;;;4987555;28;20485;-64
2023/06/18 09:19:54;;;;;;;12.48;11.88;;;;;;;;;;4983398;28;20025;-65
2023/06/18 09:22:21;;;;;;;11.98;11.48;;;;;;;;;;4979360;28;20031;-64
2023/06/18 09:24:46;;;;;;;12.75;12.15;;;;;;;;;;4991037;28;20022;-65
2023/06/18 09:27:12;;;;;;;12.57;11.98;;;;;;;;;;4986196;28;20494;-64
2023/06/18 09:29:38;;;;;;;12.10;11.60;;;;;;;;;;4989003;28;20034;-64
2023/06/18 09:32:06;;;;;;;13.10;12.50;;;;;;;;;;4982978;28;20034;-65
2023/06/18 09:34:32;;;;;;;11.68;11.18;;;;;;;;;;4991975;28;20048;-65
2023/06/18 09:36:57;;;;;;;12.80;12.20;;;;;;;;;;4986713;28;20045;-65
2023/06/18 09:39:23;;;;;;;12.30;11.70;;;;;;;;;;4991378;28;20323;-65
2023/06/18 09:41:49;;;;;;;13.63;13.02;;;;;;;;;;4980595;28;20023;-64
2023/06/18 09:44:16;;;;;;;12.00;11.50;;;;;;;;;;4987454;28;20108;-66
2023/06/18 09:46:44;;;;;;;12.57;11.98;;;;;;;;;;4990098;28;20034;-64
2023/06/18 09:49:13;;;;;;;12.85;12.25;;;;;;;;;;4984619;28;20474;-64
2023/06/18 09:51:42;;;;;;;12.48;11.88;;;;;;;;;;4983303;28;20113;-65
2023/06/18 09:54:08;;;;;;;12.30;11.73;;;;;;;;;;4983047;28;20054;-65
2023/06/18 09:56:34;;;;;;;12.60;12.00;;;;;;;;;;4987190;28;20390;-65
2023/06/18 09:59:01;;;;;;;12.60;12.00;;;;;;;;;;4994097;28;20025;-65
2023/06/18 10:01:28;;;;;;;12.20;11.68;;;;;;;;;;4991450;28;20050;-65
2023/06/18 10:03:54;;;;;;;12.40;11.80;;;;;;;;;;4991543;28;20081;-66
2023/06/18 10:06:23;;;;;;;12.40;11.80;;;;;;;;;;4990607;28;20421;-64
2023/06/18 10:08:50;;;;;;;12.30;11.70;;;;;;;;;;4991705;28;20030;-66
2023/06/18 10:11:16;;;;;;;12.60;12.00;;;;;;;;;;4990361;28;20031;-64
2023/06/18 10:13:46;;;;;;;12.02;11.52;;;;;;;;;;4993552;28;20549;-65
2023/06/18 10:16:12;;;;;;;12.98;12.38;;;;;;;;;;4987849;28;20053;-65
2023/06/18 10:18:39;;;;;;;12.32;11.73;;;;;;;;;;4990079;28;20022;-65
2023/06/18 10:21:06;;;;;;;12.00;11.50;;;;;;;;;;4991973;28;20019;-65
2023/06/18 10:23:33;;;;;;;12.70;12.10;;;;;;;;;;4990102;28;20036;-65
2023/06/18 10:26:00;;;;;;;12.52;11.93;;;;;;;;;;4987004;28;20053;-64
2023/06/18 10:28:27;;;;;;;12.30;11.70;;;;;;;;;;4981693;28;20066;-65
2023/06/18 10:30:53;;;;;;;12.30;11.70;;;;;;;;;;4995322;28;20018;-65
2023/06/18 10:33:19;;;;;;;12.25;11.73;;;;;;;;;;4989354;28;20069;-64
2023/06/18 10:35:45;;;;;;;12.13;11.63;;;;;;;;;;4991412;28;20113;-65
2023/06/18 10:38:11;;;;;;;12.65;12.05;;;;;;;;;;4991314;28;20029;-64
2023/06/18 10:40:37;;;;;;;12.27;11.70;;;;;;;;;;4991613;28;20026;-65
2023/06/18 10:43:03;;;;;;;11.93;11.43;;;;;;;;;;4993192;28;20057;-65
2023/06/18 10:45:28;;;;;;;12.70;12.10;;;;;;;;;;4992087;28;20033;-64
2023/06/18 10:48:12;;;;;;;12.53;11.93;;;;;;;;;;4988420;28;20030;-65
2023/06/18 10:50:38;;;;;;;11.80;11.30;;;;;;;;;;4991157;28;20256;-64
2023/06/18 10:53:21;;;;;;;12.23;11.63;;;;;;;;;;4990136;28;20387;-65
2023/06/18 10:55:56;;;;;;;11.87;11.37;;;;;;;;;;4982282;28;20149;-65
2023/06/18 10:58:30;;;;;;;11.98;11.48;;;;;;;;;;4995150;28;20023;-64
2023/06/18 11:00:56;;;;;;;12.48;11.88;;;;;;;;;;4991208;28;20018;-65
2023/06/18 11:03:21;;;;;;;11.95;11.45;;;;;;;;;;4991417;28;20089;-64
2023/06/18 11:05:47;;;;;;;12.63;12.02;;;;;;;;;;4991603;28;20149;-65
2023/06/18 11:08:13;;;;;;;11.95;11.45;;;;;;;;;;4987235;28;20047;-65
2023/06/18 11:10:45;;;;;;;12.77;12.18;;;;;;;;;;4993038;28;20109;-65
2023/06/18 11:13:10;;;;;;;12.40;11.80;;;;;;;;;;4995776;28;20027;-65
2023/06/18 11:15:56;;;;;;;12.43;11.82;;;;;;;;;;4994731;28;20038;-65
2023/06/18 11:18:22;;;;;;;11.98;11.48;;;;;;;;;;4982548;28;20386;-65
2023/06/18 11:20:47;;;;;;;12.50;11.90;;;;;;;;;;4994799;28;20025;-64
2023/06/18 11:23:12;;;;;;;11.73;11.23;;;;;;;;;;4993310;28;20073;-64
2023/06/18 11:25:38;;;;;;;12.32;11.75;;;;;;;;;;4994298;28;20026;-64
2023/06/18 11:28:04;;;;;;;12.73;12.13;;;;;;;;;;4989269;28;20050;-66
2023/06/18 11:30:31;;;;;;;12.65;12.05;;;;;;;;;;4994415;28;20252;-64
2023/06/18 11:32:57;;;;;;;11.95;11.45;;;;;;;;;;4989787;28;20065;-65
2023/06/18 11:35:22;;;;;;;12.00;11.50;;;;;;;;;;4988622;28;20050;-65
2023/06/18 11:37:47;;;;;;;12.40;11.80;;;;;;;;;;4994912;28;20494;-64
2023/06/18 11:40:13;;;;;;;12.15;11.65;;;;;;;;;;4992405;28;20296;-65
2023/06/18 11:42:47;;;;;;;11.80;11.30;;;;;;;;;;4994583;28;20014;-65
2023/06/18 11:45:12;;;;;;;12.00;11.50;;;;;;;;;;4991827;28;20259;-66
2023/06/18 11:47:43;;;;;;;12.50;11.90;;;;;;;;;;4992014;28;20038;-65
2023/06/18 11:50:09;;;;;;;11.60;11.10;;;;;;;;;;4994115;28;20257;-64
2023/06/18 11:52:36;;;;;;;11.90;11.40;;;;;;;;;;4995802;28;20105;-64
2023/06/18 11:55:03;;;;;;;11.93;11.43;;;;;;;;;;4987382;28;20026;-65
2023/06/18 11:57:28;;;;;;;12.48;11.88;;;;;;;;;;4995902;28;20065;-67
2023/06/18 11:59:54;;;;;;;12.30;11.70;;;;;;;;;;4990125;28;20466;-64
2023/06/18 12:02:26;;;;;;;11.82;11.32;;;;;;;;;;4991380;28;20453;-65
2023/06/18 12:04:52;;;;;;;12.32;11.73;;;;;;;;;;4982811;28;20117;-64
2023/06/18 12:07:22;;;;;;;11.70;11.20;;;;;;;;;;4991969;28;20523;-66
2023/06/18 12:09:48;;;;;;;12.23;11.65;;;;;;;;;;4989457;28;20038;-66
2023/06/18 12:12:13;;;;;;;12.25;11.70;;;;;;;;;;4980394;28;20109;-65
2023/06/18 12:14:46;;;;;;;12.13;11.63;;;;;;;;;;4989735;28;20157;-66
2023/06/18 12:17:22;;;;;;;12.23;11.68;;;;;;;;;;4988127;28;20034;-66
2023/06/18 12:19:49;;;;;;;12.02;11.52;;;;;;;;;;4990436;28;20022;-65
2023/06/18 12:22:14;;;;;;;12.38;11.77;;;;;;;;;;4983150;28;20041;-64
2023/06/18 12:24:40;;;;;;;11.77;11.27;;;;;;;;;;4990169;28;20018;-65
2023/06/18 12:27:06;;;;;;;11.68;11.18;;;;;;;;;;4989044;28;20390;-64
2023/06/18 12:29:31;;;;;;;11.70;11.20;;;;;;;;;;4993562;28;20029;-66
2023/06/18 12:32:01;;;;;;;12.20;11.68;;;;;;;;;;4993124;28;20489;-65
2023/06/18 12:34:27;;;;;;;11.77;11.27;;;;;;;;;;4992983;28;20030;-65
2023/06/18 12:36:55;;;;;;;11.73;11.23;;;;;;;;;;4993183;28;20037;-64
2023/06/18 12:39:21;;;;;;;12.60;12.00;;;;;;;;;;4981584;28;20140;-65
2023/06/18 12:41:46;;;;;;;13.18;12.57;;;;;;;;;;4991802;28;20165;-64
2023/06/18 12:44:12;;;;;;;12.43;11.82;;;;;;;;;;4982548;28;20510;-65
2023/06/18 12:46:38;;;;;;;11.73;11.23;;;;;;;;;;4988676;28;20486;-65
2023/06/18 12:49:07;;;;;;;11.88;11.38;;;;;;;;;;4989824;28;20468;-65
2023/06/18 12:51:40;;;;;;;13.10;12.50;;;;;;;;;;4990991;28;20069;-65
2023/06/18 12:54:12;;;;;;;12.80;12.20;;;;;;;;;;4992146;28;20033;-65
2023/06/18 12:56:44;;;;;;;12.48;11.88;;;;;;;;;;4994116;28;20481;-65
2023/06/18 12:59:15;;;;;;;12.90;12.30;;;;;;;;;;4994769;28;20029;-65
2023/06/18 13:01:40;;;;;;;13.45;12.82;;;;;;;;;;4977204;28;20018;-65
2023/06/18 13:04:06;;;;;;;12.88;12.27;;;;;;;;;;4987541;28;20033;-65
2023/06/18 13:06:33;;;;;;;12.50;11.90;;;;;;;;;;4984744;28;20335;-65
2023/06/18 13:08:59;;;;;;;12.73;12.13;;;;;;;;;;4987213;28;20057;-65
2023/06/18 13:11:24;;;;;;;11.77;11.27;;;;;;;;;;4991947;28;20481;-65
2023/06/18 13:13:50;;;;;;;12.30;11.70;;;;;;;;;;4988435;28;20038;-65
2023/06/18 13:16:15;;;;;;;13.15;12.55;;;;;;;;;;4990292;28;20513;-65
2023/06/18 13:18:41;;;;;;;12.80;12.20;;;;;;;;;;4989069;28;20026;-65
2023/06/18 13:21:06;;;;;;;13.20;12.60;;;;;;;;;;4991871;28;20041;-65
2023/06/18 13:23:32;;;;;;;12.70;12.10;;;;;;;;;;4990939;28;20394;-65
2023/06/18 13:25:57;;;;;;;13.13;12.52;;;;;;;;;;4989355;28;20018;-65
2023/06/18 13:28:22;;;;;;;12.35;11.75;;;;;;;;;;4983841;28;20413;-65
2023/06/18 13:30:48;;;;;;;12.93;12.32;;;;;;;;;;4990330;28;20083;-64
2023/06/18 13:33:13;;;;;;;13.57;12.88;;;;;;;;;;4992556;28;20165;-65
2023/06/18 13:35:39;;;;;;;12.18;11.57;;;;;;;;;;4990692;28;20026;-65
2023/06/18 13:38:04;;;;;;;13.13;12.52;;;;;;;;;;4989100;28;20049;-64
2023/06/18 13:40:30;;;;;;;12.77;12.18;;;;;;;;;;4991197;28;20014;-65
2023/06/18 13:42:55;;;;;;;12.40;11.80;;;;;;;;;;4992082;28;20046;-65
2023/06/18 13:45:20;;;;;;;12.75;12.15;;;;;;;;;;4991593;28;20022;-65
2023/06/18 13:47:46;;;;;;;12.65;12.05;;;;;;;;;;4991927;28;20026;-66
2023/06/18 13:50:11;;;;;;;12.45;11.85;;;;;;;;;;4986318;28;20054;-66
2023/06/18 13:52:36;;;;;;;12.15;11.60;;;;;;;;;;4983203;28;20037;-67
2023/06/18 13:55:02;;;;;;;13.05;12.45;;;;;;;;;;4991228;28;20080;-65
2023/06/18 13:57:27;;;;;;;12.88;12.27;;;;;;;;;;4986698;28;20267;-64
2023/06/18 13:59:52;;;;;;;12.13;11.52;;;;;;;;;;5003516;28;20493;-65
2023/06/18 14:02:18;;;;;;;12.37;11.77;;;;;;;;;;4992045;28;20030;-64
2023/06/18 14:04:43;;;;;;;13.02;12.43;;;;;;;;;;4991759;28;20236;-64
2023/06/18 14:07:09;;;;;;;12.30;11.70;;;;;;;;;;4991988;28;20030;-65
2023/06/18 14:09:35;;;;;;;12.70;12.10;;;;;;;;;;4985631;28;20023;-65
2023/06/18 14:12:00;;;;;;;12.52;11.93;;;;;;;;;;4981464;28;20027;-64